createdAt,value
2018-02-15T00:01:03.428Z,99.90
2018-02-15T00:04:13.875Z,99.90
2018-02-15T00:07:24.668Z,99.90
2018-02-15T00:10:35.023Z,99.90
2018-02-15T00:13:46.171Z,99.90
2018-02-15T00:16:57.410Z,99.90
2018-02-15T00:20:08.638Z,99.90
2018-02-15T00:23:19.776Z,99.90
2018-02-15T00:26:31.684Z,99.90
2018-02-15T00:29:41.750Z,99.90
2018-02-15T00:32:52.497Z,99.90
2018-02-15T00:36:03.596Z,99.90
2018-02-15T00:39:14.837Z,99.90
2018-02-15T00:42:25.497Z,99.90
2018-02-15T00:45:35.772Z,99.90
2018-02-15T00:48:46.112Z,99.90
2018-02-15T00:51:57.003Z,99.90
2018-02-15T00:55:08.503Z,99.90
2018-02-15T00:58:18.853Z,99.90
2018-02-15T01:01:28.746Z,99.90
2018-02-15T01:04:38.870Z,99.90
2018-02-15T01:07:49.555Z,99.90
2018-02-15T01:10:59.736Z,99.90
2018-02-15T01:14:10.484Z,99.90
2018-02-15T01:17:20.799Z,99.90
2018-02-15T01:20:31.152Z,99.90
2018-02-15T01:23:41.855Z,99.90
2018-02-15T01:26:52.250Z,99.90
2018-02-15T01:30:02.384Z,99.90
2018-02-15T01:33:12.750Z,99.90
2018-02-15T01:36:23.078Z,99.90
2018-02-15T01:39:33.390Z,99.90
2018-02-15T01:42:43.816Z,99.90
2018-02-15T01:45:54.686Z,99.90
2018-02-15T01:49:05.538Z,99.90
2018-02-15T01:52:16.452Z,99.90
2018-02-15T01:55:26.836Z,99.90
2018-02-15T01:58:37.965Z,99.90
2018-02-15T02:01:47.875Z,99.90
2018-02-15T02:04:58.899Z,99.90
2018-02-15T02:08:10.083Z,99.90
2018-02-15T02:11:20.263Z,99.90
2018-02-15T02:14:30.318Z,99.90
2018-02-15T02:17:40.342Z,99.90
2018-02-15T02:20:50.321Z,99.90
2018-02-15T02:24:00.272Z,99.90
2018-02-15T02:27:10.093Z,99.90
2018-02-15T02:30:20.044Z,99.90
2018-02-15T02:33:30.134Z,99.90
2018-02-15T02:36:40.335Z,99.90
2018-02-15T02:39:50.328Z,99.90
2018-02-15T02:43:01.237Z,99.90
2018-02-15T02:46:11.873Z,99.90
2018-02-15T02:49:22.447Z,99.90
2018-02-15T02:52:32.646Z,99.90
2018-02-15T02:55:43.086Z,99.90
2018-02-15T02:58:52.967Z,99.90
2018-02-15T03:02:02.981Z,99.90
2018-02-15T03:05:13.132Z,99.90
2018-02-15T03:08:24.113Z,99.90
2018-02-15T03:11:34.691Z,99.90
2018-02-15T03:14:45.382Z,99.90
2018-02-15T03:17:56.158Z,99.90
2018-02-15T03:21:06.333Z,99.90
2018-02-15T03:24:16.408Z,99.90
2018-02-15T03:27:26.372Z,99.90
2018-02-15T03:30:36.336Z,99.90
2018-02-15T03:33:46.737Z,99.90
2018-02-15T03:36:57.320Z,99.90
2018-02-15T03:40:07.564Z,99.90
2018-02-15T03:43:17.395Z,99.90
2018-02-15T03:46:27.424Z,99.90
2018-02-15T03:49:37.708Z,99.90
2018-02-15T03:52:47.889Z,99.90
2018-02-15T03:55:58.213Z,99.90
2018-02-15T03:59:08.323Z,99.90
2018-02-15T04:02:18.439Z,99.90
2018-02-15T04:05:28.823Z,99.90
2018-02-15T04:08:38.716Z,99.90
2018-02-15T04:11:48.999Z,99.90
2018-02-15T04:14:59.233Z,99.90
2018-02-15T04:18:09.960Z,99.90
2018-02-15T04:21:20.452Z,99.90
2018-02-15T04:24:30.995Z,99.90
2018-02-15T04:27:41.671Z,99.90
2018-02-15T04:30:52.428Z,99.90
2018-02-15T04:34:03.474Z,99.90
2018-02-15T04:37:13.523Z,99.90
2018-02-15T04:40:23.672Z,99.90
2018-02-15T04:43:33.548Z,99.90
2018-02-15T04:46:44.766Z,99.90
2018-02-15T04:49:55.180Z,99.90
2018-02-15T04:53:05.214Z,99.90
2018-02-15T04:56:16.035Z,99.90
2018-02-15T04:59:27.081Z,99.90
2018-02-15T05:02:37.704Z,99.90
2018-02-15T05:05:47.834Z,99.90
2018-02-15T05:08:58.357Z,99.90
2018-02-15T05:12:08.417Z,99.90
2018-02-15T05:15:18.444Z,99.90
2018-02-15T05:18:28.622Z,99.90
2018-02-15T05:21:39.159Z,99.90
2018-02-15T05:24:50.295Z,99.90
2018-02-15T05:28:00.776Z,99.90
2018-02-15T05:31:11.050Z,99.90
2018-02-15T05:34:21.339Z,99.90
2018-02-15T05:37:31.988Z,99.90
2018-02-15T05:40:41.843Z,99.90
2018-02-15T05:43:51.687Z,99.90
2018-02-15T05:47:01.599Z,99.90
2018-02-15T05:50:12.970Z,99.90
2018-02-15T05:53:23.472Z,99.90
2018-02-15T05:56:33.453Z,99.90
2018-02-15T05:59:43.953Z,99.90
2018-02-15T06:02:54.833Z,99.90
2018-02-15T06:06:06.363Z,99.90
2018-02-15T06:09:16.747Z,99.90
2018-02-15T06:12:27.246Z,99.90
2018-02-15T06:15:37.103Z,99.90
2018-02-15T06:18:47.504Z,99.90
2018-02-15T06:21:57.840Z,99.90
2018-02-15T06:25:09.267Z,99.90
2018-02-15T06:28:19.430Z,99.90
2018-02-15T06:31:29.256Z,99.90
2018-02-15T06:34:39.162Z,99.90
2018-02-15T06:37:49.664Z,99.90
2018-02-15T06:40:59.525Z,99.90
2018-02-15T06:44:09.795Z,99.90
2018-02-15T06:47:20.186Z,99.90
2018-02-15T06:50:30.568Z,99.90
2018-02-15T06:53:40.488Z,99.90
2018-02-15T06:56:51.382Z,99.90
2018-02-15T07:00:02.095Z,99.90
2018-02-15T07:03:12.232Z,99.90
2018-02-15T07:06:23.054Z,99.90
2018-02-15T07:09:33.910Z,99.90
2018-02-15T07:12:44.060Z,99.90
2018-02-15T07:15:54.163Z,99.90
2018-02-15T07:19:04.330Z,99.90
2018-02-15T07:22:14.810Z,99.90
2018-02-15T07:25:25.073Z,99.90
2018-02-15T07:28:35.116Z,99.90
2018-02-15T07:31:45.358Z,99.90
2018-02-15T07:34:56.152Z,99.90
2018-02-15T07:38:06.351Z,99.90
2018-02-15T07:41:16.450Z,99.90
2018-02-15T07:44:27.990Z,99.90
2018-02-15T07:47:38.521Z,99.90
2018-02-15T07:50:48.408Z,99.90
2018-02-15T07:53:58.847Z,99.90
2018-02-15T07:57:08.758Z,99.90
2018-02-15T08:00:18.936Z,99.90
2018-02-15T08:03:30.428Z,99.90
2018-02-15T08:06:40.523Z,99.90
2018-02-15T08:09:50.495Z,99.90
2018-02-15T08:13:00.713Z,99.90
2018-02-15T08:16:10.760Z,99.90
2018-02-15T08:19:20.724Z,99.90
2018-02-15T08:22:30.643Z,99.90
2018-02-15T08:25:40.866Z,99.90
2018-02-15T08:28:50.893Z,99.90
2018-02-15T08:32:01.669Z,99.90
2018-02-15T08:35:11.971Z,99.90
2018-02-15T08:38:22.097Z,99.90
2018-02-15T08:41:32.433Z,99.90
2018-02-15T08:44:42.459Z,99.90
2018-02-15T08:47:52.832Z,99.90
2018-02-15T08:51:03.088Z,99.90
2018-02-15T08:54:13.523Z,99.90
2018-02-15T08:57:23.656Z,99.90
2018-02-15T09:00:34.325Z,99.90
2018-02-15T09:03:45.230Z,99.90
2018-02-15T09:06:55.608Z,99.90
2018-02-15T09:10:05.594Z,99.20
2018-02-15T09:13:15.410Z,99.90
2018-02-15T09:16:25.471Z,98.30
2018-02-15T09:19:35.220Z,99.90
2018-02-15T09:22:45.207Z,99.20
2018-02-15T09:25:55.377Z,98.60
2018-02-15T09:29:05.413Z,96.70
2018-02-15T09:32:15.834Z,99.70
2018-02-15T09:35:26.275Z,98.50
2018-02-15T09:38:36.305Z,96.30
2018-02-15T09:41:46.608Z,98.20
2018-02-15T09:44:56.893Z,98.50
2018-02-15T09:48:07.028Z,96.10
2018-02-15T09:51:17.555Z,96.90
2018-02-15T09:54:27.899Z,95.80
2018-02-15T09:57:38.077Z,96.90
2018-02-15T10:00:51.733Z,94.40
2018-02-15T10:04:02.553Z,92.90
2018-02-15T10:07:13.232Z,97.30
2018-02-15T10:10:23.576Z,93.20
2018-02-15T10:13:33.982Z,93.50
2018-02-15T10:16:44.231Z,92.90
2018-02-15T10:19:54.285Z,95.20
2018-02-15T10:23:04.951Z,91.90
2018-02-15T10:26:15.506Z,91.70
2018-02-15T10:29:25.491Z,92.00
2018-02-15T10:32:36.434Z,90.50
2018-02-15T10:35:46.721Z,90.50
2018-02-15T10:38:56.652Z,85.60
2018-02-15T10:42:06.745Z,88.40
2018-02-15T10:45:17.043Z,86.10
2018-02-15T10:48:27.718Z,84.40
2018-02-15T10:51:37.771Z,83.20
2018-02-15T10:54:48.093Z,88.70
2018-02-15T10:57:58.191Z,80.90
2018-02-15T11:01:13.475Z,82.20
2018-02-15T11:04:28.803Z,82.70
2018-02-15T11:07:39.432Z,82.60
2018-02-15T11:10:49.869Z,86.40
2018-02-15T11:14:00.112Z,81.70
2018-02-15T11:17:10.342Z,76.10
2018-02-15T11:20:22.635Z,78.40
2018-02-15T11:23:33.433Z,77.20
2018-02-15T11:26:43.989Z,74.70
2018-02-15T11:29:54.891Z,78.20
2018-02-15T11:33:06.466Z,74.10
2018-02-15T11:36:17.029Z,74.00
2018-02-15T11:39:27.052Z,72.90
2018-02-15T11:42:37.346Z,67.10
2018-02-15T11:45:48.025Z,67.70
2018-02-15T11:48:57.751Z,64.90
2018-02-15T11:52:07.883Z,62.00
2018-02-15T11:55:17.902Z,65.20
2018-02-15T11:58:27.909Z,56.70
2018-02-15T12:01:38.034Z,62.80
2018-02-15T12:04:48.388Z,61.00
2018-02-15T12:07:58.247Z,56.00
2018-02-15T12:11:08.230Z,57.60
2018-02-15T12:14:18.956Z,56.60
2018-02-15T12:17:29.107Z,56.50
2018-02-15T12:20:40.241Z,55.20
2018-02-15T12:23:50.070Z,55.10
2018-02-15T12:27:00.175Z,53.90
2018-02-15T12:30:10.515Z,52.40
2018-02-15T12:33:21.606Z,54.00
2018-02-15T12:36:32.190Z,54.10
2018-02-15T12:39:42.127Z,53.60
2018-02-15T12:42:53.141Z,50.90
2018-02-15T12:46:03.452Z,50.90
2018-02-15T12:49:13.434Z,53.00
2018-02-15T12:52:23.244Z,49.80
2018-02-15T12:55:33.232Z,49.00
2018-02-15T12:58:43.186Z,46.20
2018-02-15T13:01:53.219Z,47.80
2018-02-15T13:05:04.059Z,48.20
2018-02-15T13:08:14.239Z,48.20
2018-02-15T13:11:24.226Z,49.20
2018-02-15T13:14:34.384Z,47.10
2018-02-15T13:17:44.865Z,50.50
2018-02-15T13:20:55.093Z,51.10
2018-02-15T13:24:05.306Z,51.10
2018-02-15T13:27:15.503Z,52.70
2018-02-15T13:30:25.773Z,54.00
2018-02-15T13:33:36.206Z,55.80
2018-02-15T13:36:46.603Z,56.00
2018-02-15T13:39:57.244Z,55.60
2018-02-15T13:43:07.739Z,54.10
2018-02-15T13:46:17.697Z,56.60
2018-02-15T13:49:27.933Z,57.50
2018-02-15T13:52:39.535Z,55.80
2018-02-15T13:55:49.585Z,52.40
2018-02-15T13:58:59.424Z,52.90
2018-02-15T14:02:09.877Z,54.60
2018-02-15T14:05:20.143Z,54.70
2018-02-15T14:08:30.118Z,57.70
2018-02-15T14:11:40.150Z,53.90
2018-02-15T14:14:51.637Z,57.70
2018-02-15T14:18:01.944Z,53.10
2018-02-15T14:21:11.872Z,54.10
2018-02-15T14:24:22.063Z,54.40
2018-02-15T14:27:31.988Z,55.50
2018-02-15T14:30:42.214Z,58.10
2018-02-15T14:33:52.806Z,58.10
2018-02-15T14:37:03.990Z,63.70
2018-02-15T14:40:14.281Z,63.70
2018-02-15T14:43:25.422Z,68.10
2018-02-15T14:46:35.509Z,67.90
2018-02-15T14:49:45.516Z,70.20
2018-02-15T14:52:55.447Z,70.50
2018-02-15T14:56:06.509Z,74.00
2018-02-15T14:59:18.062Z,74.00
2018-02-15T15:02:28.180Z,72.60
2018-02-15T15:05:38.337Z,73.60
2018-02-15T15:08:48.661Z,74.20
2018-02-15T15:11:58.640Z,76.80
2018-02-15T15:15:08.401Z,76.20
2018-02-15T15:18:19.501Z,79.10
2018-02-15T15:21:29.898Z,78.10
2018-02-15T15:24:42.389Z,81.30
2018-02-15T15:27:52.880Z,81.20
2018-02-15T15:31:03.225Z,81.50
2018-02-15T15:34:13.516Z,81.10
2018-02-15T15:37:23.498Z,85.50
2018-02-15T15:40:33.510Z,80.40
2018-02-15T15:43:44.970Z,85.00
2018-02-15T15:46:55.078Z,85.00
2018-02-15T15:50:06.278Z,90.00
2018-02-15T15:53:16.139Z,89.80
2018-02-15T15:56:26.188Z,91.40
2018-02-15T15:59:36.430Z,92.60
2018-02-15T16:02:46.584Z,94.50
2018-02-15T16:05:59.068Z,99.90
2018-02-15T16:09:09.823Z,99.90
2018-02-15T16:12:20.459Z,99.90
2018-02-15T16:15:30.491Z,99.90
2018-02-15T16:18:40.900Z,99.90
2018-02-15T16:21:51.055Z,99.90
2018-02-15T16:25:02.240Z,99.90
2018-02-15T16:28:12.064Z,99.90
2018-02-15T16:31:22.709Z,99.90
2018-02-15T16:34:33.172Z,99.90
2018-02-15T16:37:43.723Z,99.90
2018-02-15T16:40:54.494Z,99.90
2018-02-15T16:44:05.721Z,99.90
2018-02-15T16:47:15.522Z,99.90
2018-02-15T16:50:25.749Z,99.90
2018-02-15T16:53:36.060Z,99.90
2018-02-15T16:56:46.426Z,99.90
2018-02-15T16:59:56.636Z,99.90
2018-02-15T17:03:08.049Z,99.90
2018-02-15T17:06:18.093Z,99.90
2018-02-15T17:09:28.221Z,99.90
2018-02-15T17:12:38.428Z,99.90
2018-02-15T17:15:49.923Z,99.90
2018-02-15T17:19:00.090Z,99.90
2018-02-15T17:22:10.650Z,99.90
2018-02-15T17:25:20.909Z,99.90
2018-02-15T17:28:30.929Z,99.90
2018-02-15T17:31:41.340Z,99.90
2018-02-15T17:34:51.378Z,99.90
2018-02-15T17:38:02.429Z,99.90
2018-02-15T17:41:12.288Z,99.90
2018-02-15T17:44:22.589Z,99.90
2018-02-15T17:47:32.993Z,99.90
2018-02-15T17:50:43.699Z,99.90
2018-02-15T18:01:07.311Z,99.90
2018-02-15T18:04:17.160Z,99.90
2018-02-15T18:07:28.049Z,99.90
2018-02-15T18:10:38.526Z,99.90
2018-02-15T18:13:49.191Z,99.90
2018-02-15T18:16:59.124Z,99.90
2018-02-15T18:20:08.765Z,99.90
2018-02-15T18:23:19.248Z,99.90
2018-02-15T18:26:29.378Z,99.90
2018-02-15T18:29:39.131Z,99.90
2018-02-15T18:32:49.496Z,99.90
2018-02-15T18:35:59.745Z,99.90
2018-02-15T18:39:09.694Z,99.90
2018-02-15T18:42:19.717Z,99.90
2018-02-15T18:45:31.221Z,99.90
2018-02-15T18:48:41.549Z,99.90
2018-02-15T18:51:51.754Z,99.90
2018-02-15T18:55:01.483Z,99.90
2018-02-15T18:58:11.631Z,99.90
2018-02-15T19:01:21.805Z,99.90
2018-02-15T19:04:33.242Z,99.90
2018-02-15T19:07:43.361Z,99.90
2018-02-15T19:10:53.331Z,99.90
2018-02-15T19:14:03.392Z,99.90
2018-02-15T19:17:13.945Z,99.90
2018-02-15T19:20:24.010Z,99.90
2018-02-15T19:23:34.219Z,99.90
2018-02-15T19:26:44.558Z,99.90
2018-02-15T19:29:54.693Z,99.90
2018-02-15T19:33:04.931Z,99.90
2018-02-15T19:36:15.796Z,99.90
2018-02-15T19:39:26.083Z,99.90
2018-02-15T19:42:36.964Z,99.90
2018-02-15T19:45:46.870Z,99.90
2018-02-15T19:48:56.963Z,99.90
2018-02-15T19:52:07.264Z,99.90
2018-02-15T19:55:17.893Z,99.90
2018-02-15T19:58:27.646Z,99.90
2018-02-15T20:01:37.958Z,99.90
2018-02-15T20:04:48.252Z,99.90
2018-02-15T20:07:58.372Z,99.90
2018-02-15T20:11:08.433Z,99.90
2018-02-15T20:14:18.463Z,99.90
2018-02-15T20:17:28.840Z,99.90
2018-02-15T20:20:38.933Z,99.90
2018-02-15T20:23:49.924Z,99.90
2018-02-15T20:30:37.480Z,99.90
2018-02-15T20:33:47.357Z,99.90
2018-02-15T20:36:57.376Z,99.90
2018-02-15T20:40:12.694Z,99.90
2018-02-15T20:43:22.879Z,99.90
2018-02-15T20:46:32.829Z,99.90
2018-02-15T20:49:48.210Z,99.90
2018-02-15T20:53:04.244Z,99.90
2018-02-15T20:56:14.345Z,99.90
2018-02-15T20:59:25.271Z,99.90
2018-02-15T21:02:36.591Z,99.90
2018-02-15T21:05:48.320Z,99.90
2018-02-15T21:08:59.128Z,99.90
2018-02-15T21:12:10.227Z,99.90
2018-02-15T21:15:21.123Z,99.90
2018-02-15T21:18:32.157Z,99.90
2018-02-15T21:21:43.148Z,99.90
2018-02-15T21:24:53.996Z,99.90
2018-02-15T21:28:05.128Z,99.90
2018-02-15T21:31:15.259Z,99.90
2018-02-15T21:34:25.286Z,99.90
2018-02-15T21:37:36.016Z,99.90
2018-02-15T21:40:46.852Z,99.90
2018-02-15T21:43:56.763Z,99.90
2018-02-15T21:47:06.531Z,99.90
2018-02-15T21:50:16.553Z,99.90
2018-02-15T21:53:27.213Z,99.90
2018-02-15T21:56:37.150Z,99.90
2018-02-15T21:59:46.979Z,99.90
2018-02-15T22:02:56.783Z,99.90
2018-02-15T22:06:06.516Z,99.90
2018-02-15T22:09:16.358Z,99.90
2018-02-15T22:12:26.436Z,99.90
2018-02-15T22:15:36.041Z,99.90
2018-02-15T22:18:47.306Z,99.90
2018-02-15T22:21:57.417Z,99.90
2018-02-15T22:25:07.157Z,99.90
2018-02-15T22:28:17.655Z,99.90
2018-02-15T22:31:28.793Z,99.90
2018-02-15T22:34:39.751Z,99.90
2018-02-15T22:37:49.908Z,99.90
2018-02-15T22:41:00.479Z,99.90
2018-02-15T22:44:11.075Z,99.90
2018-02-15T22:47:21.678Z,99.90
2018-02-15T22:50:31.913Z,99.90
2018-02-15T22:53:42.134Z,99.90
2018-02-15T22:56:51.976Z,99.90
2018-02-15T23:00:02.116Z,99.90
2018-02-15T23:03:12.184Z,99.90
2018-02-15T23:06:22.560Z,99.90
2018-02-15T23:09:32.556Z,99.90
2018-02-15T23:12:42.590Z,99.90
2018-02-15T23:15:52.583Z,99.90
2018-02-15T23:19:02.603Z,99.90
2018-02-15T23:22:13.242Z,99.90
2018-02-15T23:25:23.336Z,99.90
2018-02-15T23:28:33.043Z,99.90
2018-02-15T23:31:43.508Z,99.90
2018-02-15T23:34:54.454Z,99.90
2018-02-15T23:38:05.371Z,99.90
2018-02-15T23:41:16.313Z,99.90
2018-02-15T23:44:26.807Z,99.90
2018-02-15T23:47:37.609Z,99.90
2018-02-15T23:50:47.473Z,99.90
2018-02-15T23:53:57.476Z,99.90
2018-02-15T23:57:07.175Z,99.90
